Time;durP1;ratioP1;P1;durP2;ratioP2;P2;SDS_P1;SDS_P2;PMS_P1;PMS_P2;Temp;Humidity;BMP_temperature;BMP_pressure;BME280_temperature;BME280_humidity;BME280_pressure;Samples;Min_cycle;Max_cycle;Signal;HPM_P1;HPM_P2
2021/09/29 00:01:37;;;;;;;23.98;4.20;;;;;;;;;;4966534;28;20180;-62
2021/09/29 00:04:04;;;;;;;135.00;7.78;;;;;;;;;;4966589;28;20047;-62
2021/09/29 00:06:31;;;;;;;51.05;4.95;;;;;;;;;;4965546;28;20141;-62
2021/09/29 00:08:57;;;;;;;81.95;7.00;;;;;;;;;;4966570;28;20051;-62
2021/09/29 00:11:24;;;;;;;83.93;6.05;;;;;;;;;;4968261;28;20078;-62
2021/09/29 00:13:50;;;;;;;41.10;5.53;;;;;;;;;;4968812;28;20071;-62
2021/09/29 00:16:16;;;;;;;32.70;4.45;;;;;;;;;;4967134;28;20039;-62
2021/09/29 00:18:47;;;;;;;38.35;4.40;;;;;;;;;;4970393;28;20053;-62
2021/09/29 00:21:14;;;;;;;21.83;4.50;;;;;;;;;;4967136;28;20078;-62
2021/09/29 00:23:40;;;;;;;27.75;5.22;;;;;;;;;;4967557;28;20089;-62
2021/09/29 00:26:07;;;;;;;66.40;6.47;;;;;;;;;;4965795;28;20465;-62
2021/09/29 00:28:34;;;;;;;19.05;4.60;;;;;;;;;;4964960;28;20078;-62
2021/09/29 00:31:12;;;;;;;15.55;3.83;;;;;;;;;;4966486;28;20159;-62
2021/09/29 00:33:45;;;;;;;;;;;;;;;;;;4966565;28;20062;-62
2021/09/29 00:36:12;;;;;;;24.38;5.53;;;;;;;;;;4967576;28;20072;-62
2021/09/29 00:38:38;;;;;;;40.10;5.13;;;;;;;;;;4965833;28;20082;-62
2021/09/29 00:41:05;;;;;;;12.88;5.10;;;;;;;;;;4966022;28;20383;-62
2021/09/29 00:43:31;;;;;;;37.83;5.03;;;;;;;;;;4965936;28;20057;-62
2021/09/29 00:45:58;;;;;;;33.85;5.63;;;;;;;;;;4966728;28;20087;-62
2021/09/29 00:48:24;;;;;;;14.80;3.97;;;;;;;;;;4968444;28;20043;-62
2021/09/29 00:50:51;;;;;;;47.10;5.30;;;;;;;;;;4968027;28;20134;-62
2021/09/29 00:53:19;;;;;;;25.25;3.83;;;;;;;;;;4967086;28;20497;-62
2021/09/29 00:55:45;;;;;;;24.65;4.00;;;;;;;;;;4968903;28;20050;-62
2021/09/29 00:58:12;;;;;;;30.00;4.78;;;;;;;;;;4961387;28;20125;-62
2021/09/29 01:00:40;;;;;;;28.00;5.32;;;;;;;;;;4967325;28;20506;-62
2021/09/29 01:03:07;;;;;;;11.20;5.18;;;;;;;;;;4966322;28;20054;-62
2021/09/29 01:05:34;;;;;;;26.67;4.93;;;;;;;;;;4967837;28;20062;-62
2021/09/29 01:08:04;;;;;;;28.25;5.07;;;;;;;;;;4967306;28;20078;-62
2021/09/29 01:10:34;;;;;;;27.08;5.88;;;;;;;;;;4965890;28;20142;-62
2021/09/29 01:13:23;;;;;;;17.55;5.97;;;;;;;;;;4968319;28;20739;-62
2021/09/29 01:15:54;;;;;;;67.57;6.10;;;;;;;;;;4966487;28;20138;-62
2021/09/29 01:18:22;;;;;;;69.32;6.50;;;;;;;;;;4964683;28;20134;-62
2021/09/29 01:20:53;;;;;;;76.38;6.88;;;;;;;;;;4967285;28;20376;-62
2021/09/29 01:23:39;;;;;;;115.97;9.20;;;;;;;;;;4967964;28;20089;-62
2021/09/29 01:26:13;;;;;;;88.30;9.15;;;;;;;;;;4968302;28;20166;-62
2021/09/29 01:28:51;;;;;;;39.08;6.30;;;;;;;;;;4967214;28;20070;-62
2021/09/29 01:31:20;;;;;;;37.35;6.70;;;;;;;;;;4965766;28;20146;-62
2021/09/29 01:33:47;;;;;;;64.47;7.35;;;;;;;;;;4967122;28;20047;-62
2021/09/29 01:36:16;;;;;;;41.73;6.87;;;;;;;;;;4963704;28;20134;-62
2021/09/29 01:38:43;;;;;;;47.15;7.63;;;;;;;;;;4963661;28;20043;-62
2021/09/29 01:41:10;;;;;;;17.88;5.85;;;;;;;;;;4965851;28;20135;-62
2021/09/29 01:43:36;;;;;;;25.23;7.10;;;;;;;;;;4968178;28;20078;-62
2021/09/29 01:46:04;;;;;;;88.28;7.72;;;;;;;;;;4966312;28;20074;-62
2021/09/29 01:48:31;;;;;;;22.40;6.45;;;;;;;;;;4965795;28;20089;-62
2021/09/29 01:50:59;;;;;;;64.00;7.88;;;;;;;;;;4970110;28;20050;-62
2021/09/29 01:53:28;;;;;;;74.80;8.95;;;;;;;;;;4961104;28;20137;-62
2021/09/29 01:55:56;;;;;;;69.18;8.95;;;;;;;;;;4961822;28;20142;-63
2021/09/29 01:58:22;;;;;;;34.00;8.05;;;;;;;;;;4965475;28;20654;-63
2021/09/29 02:00:49;;;;;;;75.95;8.18;;;;;;;;;;4965187;28;20505;-62
2021/09/29 02:03:20;;;;;;;63.83;9.00;;;;;;;;;;4966222;28;20130;-62
2021/09/29 02:05:47;;;;;;;43.70;8.05;;;;;;;;;;4968509;28;20066;-63
2021/09/29 02:08:14;;;;;;;65.72;7.53;;;;;;;;;;4966625;28;20467;-62
2021/09/29 02:10:41;;;;;;;80.55;9.52;;;;;;;;;;4968340;28;20134;-62
2021/09/29 02:13:07;;;;;;;123.03;10.98;;;;;;;;;;4963846;28;20134;-63
2021/09/29 02:15:34;;;;;;;74.65;8.20;;;;;;;;;;4966599;28;20051;-63
2021/09/29 02:18:00;;;;;;;51.03;7.68;;;;;;;;;;4968063;28;20089;-63
2021/09/29 02:20:27;;;;;;;92.68;10.23;;;;;;;;;;4963208;28;20039;-62
2021/09/29 02:22:53;;;;;;;88.90;10.52;;;;;;;;;;4967407;28;20133;-63
2021/09/29 02:25:20;;;;;;;31.30;5.68;;;;;;;;;;4968204;28;20129;-62
2021/09/29 02:27:47;;;;;;;54.10;8.60;;;;;;;;;;4969571;28;20133;-63
2021/09/29 02:30:13;;;;;;;93.70;11.85;;;;;;;;;;4966982;28;20126;-63
2021/09/29 02:32:41;;;;;;;36.10;7.00;;;;;;;;;;4964868;28;20514;-63
2021/09/29 02:35:09;;;;;;;57.22;9.30;;;;;;;;;;4966508;28;20941;-64
2021/09/29 02:37:36;;;;;;;49.70;8.15;;;;;;;;;;4966673;28;20058;-63
2021/09/29 02:40:03;;;;;;;88.93;10.35;;;;;;;;;;4965603;28;20089;-63
2021/09/29 02:42:29;;;;;;;74.03;10.50;;;;;;;;;;4964963;28;20125;-63
2021/09/29 02:44:56;;;;;;;63.20;10.00;;;;;;;;;;4965562;28;20101;-63
2021/09/29 02:47:24;;;;;;;100.78;9.18;;;;;;;;;;4963093;28;20051;-63
2021/09/29 02:49:50;;;;;;;63.15;9.20;;;;;;;;;;4963454;28;20102;-63
2021/09/29 02:52:17;;;;;;;85.47;11.43;;;;;;;;;;4964581;28;20402;-63
2021/09/29 02:54:43;;;;;;;121.80;12.90;;;;;;;;;;4962456;28;20133;-63
2021/09/29 02:57:10;;;;;;;54.85;9.38;;;;;;;;;;4967305;28;20509;-63
2021/09/29 02:59:36;;;;;;;64.63;7.55;;;;;;;;;;4966467;28;20127;-63
2021/09/29 03:02:03;;;;;;;61.58;9.35;;;;;;;;;;4962514;28;20586;-63
2021/09/29 03:04:30;;;;;;;76.80;8.95;;;;;;;;;;4967900;28;20047;-63
2021/09/29 03:06:56;;;;;;;90.88;12.05;;;;;;;;;;4962937;28;20122;-63
2021/09/29 03:09:23;;;;;;;94.72;9.30;;;;;;;;;;4965277;28;20121;-63
2021/09/29 03:11:49;;;;;;;167.77;13.60;;;;;;;;;;4967168;28;20119;-63
2021/09/29 03:14:16;;;;;;;96.95;10.68;;;;;;;;;;4966467;28;20051;-63
2021/09/29 03:16:43;;;;;;;74.65;9.50;;;;;;;;;;4965742;28;20566;-63
2021/09/29 03:19:10;;;;;;;90.47;9.95;;;;;;;;;;4963454;28;20533;-63
2021/09/29 03:21:36;;;;;;;126.30;11.68;;;;;;;;;;4966325;28;20133;-63
2021/09/29 03:24:03;;;;;;;31.27;8.73;;;;;;;;;;4968330;28;20475;-63
2021/09/29 03:26:30;;;;;;;127.80;10.98;;;;;;;;;;4965425;28;20134;-63
2021/09/29 03:28:56;;;;;;;183.18;12.68;;;;;;;;;;4966860;28;20118;-63
2021/09/29 03:31:23;;;;;;;85.07;9.17;;;;;;;;;;4962850;28;20490;-63
2021/09/29 03:33:50;;;;;;;91.78;11.57;;;;;;;;;;4962987;28;20450;-63
2021/09/29 03:36:16;;;;;;;122.57;11.25;;;;;;;;;;4966082;28;20139;-63
2021/09/29 03:38:42;;;;;;;69.35;10.45;;;;;;;;;;4967095;28;20415;-63
2021/09/29 03:41:09;;;;;;;145.40;12.02;;;;;;;;;;4964458;28;20140;-63
2021/09/29 03:43:35;;;;;;;190.98;13.43;;;;;;;;;;4964193;28;20142;-63
2021/09/29 03:46:02;;;;;;;117.93;10.50;;;;;;;;;;4968617;28;20145;-63
2021/09/29 03:48:29;;;;;;;184.13;12.65;;;;;;;;;;4970840;28;20047;-63
2021/09/29 03:50:55;;;;;;;93.13;11.95;;;;;;;;;;4965246;28;20590;-63
2021/09/29 03:53:22;;;;;;;83.82;11.35;;;;;;;;;;4967224;28;20138;-63
2021/09/29 03:55:49;;;;;;;127.97;9.88;;;;;;;;;;4968933;28;20593;-63
2021/09/29 03:58:18;;;;;;;95.95;11.40;;;;;;;;;;4968526;28;20046;-63
2021/09/29 04:00:45;;;;;;;216.75;15.43;;;;;;;;;;4967128;28;20108;-63
2021/09/29 04:03:11;;;;;;;185.50;12.93;;;;;;;;;;4963644;28;20094;-63
2021/09/29 04:05:38;;;;;;;156.03;13.63;;;;;;;;;;4967690;28;20578;-63
2021/09/29 04:08:05;;;;;;;157.88;13.02;;;;;;;;;;4969140;28;20051;-63
2021/09/29 04:10:31;;;;;;;144.95;11.50;;;;;;;;;;4964101;28;20273;-63
2021/09/29 04:12:58;;;;;;;234.57;16.70;;;;;;;;;;4962205;28;21269;-63
2021/09/29 04:15:25;;;;;;;163.73;13.98;;;;;;;;;;4966658;28;20121;-63
2021/09/29 04:17:51;;;;;;;79.40;10.10;;;;;;;;;;4970901;28;20679;-63
2021/09/29 04:20:18;;;;;;;68.13;10.95;;;;;;;;;;4968191;28;20498;-63
2021/09/29 04:22:44;;;;;;;60.92;10.77;;;;;;;;;;4966031;28;20135;-63
2021/09/29 04:25:11;;;;;;;34.30;9.07;;;;;;;;;;4961533;28;20617;-63
2021/09/29 04:27:37;;;;;;;47.47;9.67;;;;;;;;;;4967105;28;20142;-63
2021/09/29 04:30:04;;;;;;;85.90;10.98;;;;;;;;;;4967041;28;20091;-63
2021/09/29 04:32:31;;;;;;;48.92;9.50;;;;;;;;;;4964191;28;20086;-63
2021/09/29 04:34:57;;;;;;;61.88;11.15;;;;;;;;;;4968409;28;20138;-64
2021/09/29 04:37:24;;;;;;;25.10;9.30;;;;;;;;;;4965887;28;20049;-64
2021/09/29 04:39:50;;;;;;;44.90;10.45;;;;;;;;;;4967065;28;20429;-63
2021/09/29 04:42:16;;;;;;;64.70;10.35;;;;;;;;;;4971133;28;20145;-63
2021/09/29 04:44:43;;;;;;;35.55;8.63;;;;;;;;;;4970190;28;20511;-63
2021/09/29 04:47:10;;;;;;;30.77;8.38;;;;;;;;;;4969559;28;20059;-63
2021/09/29 04:49:36;;;;;;;38.20;10.10;;;;;;;;;;4967829;28;20140;-63
2021/09/29 04:52:03;;;;;;;92.45;12.57;;;;;;;;;;4964552;28;20055;-63
2021/09/29 04:54:29;;;;;;;79.70;11.30;;;;;;;;;;4971539;28;20150;-63
2021/09/29 04:56:56;;;;;;;61.28;10.85;;;;;;;;;;4968697;28;20113;-63
2021/09/29 04:59:22;;;;;;;125.23;13.23;;;;;;;;;;4966393;28;20093;-63
2021/09/29 05:01:49;;;;;;;129.77;14.45;;;;;;;;;;4964260;28;20379;-63
2021/09/29 05:04:15;;;;;;;100.95;13.32;;;;;;;;;;4967191;28;20038;-63
2021/09/29 05:06:43;;;;;;;126.55;12.57;;;;;;;;;;4967536;28;20473;-63
2021/09/29 05:09:10;;;;;;;33.47;8.38;;;;;;;;;;4963916;28;20138;-63
2021/09/29 05:11:48;;;;;;;71.53;9.85;;;;;;;;;;4968510;28;20121;-63
2021/09/29 05:14:15;;;;;;;103.90;11.52;;;;;;;;;;4964788;28;20074;-63
2021/09/29 05:16:42;;;;;;;106.40;11.73;;;;;;;;;;4962669;28;20077;-63
2021/09/29 05:19:08;;;;;;;70.07;11.10;;;;;;;;;;4960190;28;20525;-63
2021/09/29 05:21:35;;;;;;;204.03;15.87;;;;;;;;;;4958746;28;20570;-63
2021/09/29 05:24:02;;;;;;;229.82;16.92;;;;;;;;;;4963730;28;20526;-63
2021/09/29 05:26:28;;;;;;;248.70;22.90;;;;;;;;;;4965344;28;20050;-63
2021/09/29 05:28:55;;;;;;;229.50;29.98;;;;;;;;;;4965939;28;20047;-63
2021/09/29 05:31:22;;;;;;;195.53;31.33;;;;;;;;;;4963650;28;20106;-63
2021/09/29 05:33:48;;;;;;;235.73;37.80;;;;;;;;;;4961210;28;20321;-63
2021/09/29 05:36:15;;;;;;;200.40;28.67;;;;;;;;;;4964411;28;20473;-63
2021/09/29 05:38:41;;;;;;;101.25;23.83;;;;;;;;;;4963135;28;20055;-65
2021/09/29 05:41:08;;;;;;;136.18;30.27;;;;;;;;;;4965994;28;20138;-63
2021/09/29 05:43:35;;;;;;;335.83;22.02;;;;;;;;;;4966290;28;20050;-63
2021/09/29 05:46:01;;;;;;;179.35;30.08;;;;;;;;;;4962713;28;20180;-63
2021/09/29 05:48:28;;;;;;;438.73;45.97;;;;;;;;;;4968884;28;20043;-63
2021/09/29 05:50:55;;;;;;;219.48;25.65;;;;;;;;;;4967947;28;20097;-63
2021/09/29 05:53:21;;;;;;;546.60;29.75;;;;;;;;;;4967221;28;20101;-63
2021/09/29 05:55:48;;;;;;;753.03;45.28;;;;;;;;;;4966102;28;20145;-63
2021/09/29 05:58:15;;;;;;;1124.57;68.93;;;;;;;;;;4965888;28;20139;-63
2021/09/29 06:00:41;;;;;;;668.80;44.40;;;;;;;;;;4964715;28;20533;-63
2021/09/29 06:03:08;;;;;;;463.20;31.92;;;;;;;;;;4964944;28;20062;-63
2021/09/29 06:05:35;;;;;;;236.60;25.52;;;;;;;;;;4970463;28;20103;-63
2021/09/29 06:08:01;;;;;;;283.20;23.10;;;;;;;;;;4965174;28;20062;-63
2021/09/29 06:10:28;;;;;;;236.55;20.00;;;;;;;;;;4967718;28;20558;-63
2021/09/29 06:12:54;;;;;;;231.80;18.38;;;;;;;;;;4965370;28;20133;-63
2021/09/29 06:15:27;;;;;;;160.88;17.00;;;;;;;;;;4963467;28;20093;-63
2021/09/29 06:17:57;;;;;;;166.70;13.57;;;;;;;;;;4967429;28;20126;-63
2021/09/29 06:20:24;;;;;;;179.43;18.50;;;;;;;;;;4963131;28;20076;-63
2021/09/29 06:22:50;;;;;;;167.95;17.33;;;;;;;;;;4967296;28;20094;-64
2021/09/29 06:25:17;;;;;;;112.32;13.75;;;;;;;;;;4961590;28;20129;-63
2021/09/29 06:27:44;;;;;;;70.97;12.52;;;;;;;;;;4959904;28;20622;-63
2021/09/29 06:30:10;;;;;;;139.50;15.30;;;;;;;;;;4961139;28;20563;-63
2021/09/29 06:32:37;;;;;;;133.77;14.07;;;;;;;;;;4964809;28;20082;-63
2021/09/29 06:35:04;;;;;;;90.07;11.97;;;;;;;;;;4960271;28;20557;-63
2021/09/29 06:37:31;;;;;;;286.85;19.58;;;;;;;;;;4959892;28;20505;-63
2021/09/29 06:39:58;;;;;;;114.22;14.07;;;;;;;;;;4967313;28;20129;-63
2021/09/29 06:42:24;;;;;;;271.88;20.02;;;;;;;;;;4961183;28;20577;-63
2021/09/29 06:44:51;;;;;;;246.45;18.70;;;;;;;;;;4960774;28;20089;-63
2021/09/29 06:47:17;;;;;;;266.13;17.88;;;;;;;;;;4961204;28;20047;-63
2021/09/29 06:49:44;;;;;;;540.33;28.33;;;;;;;;;;4957656;28;20137;-63
2021/09/29 06:52:10;;;;;;;322.88;21.00;;;;;;;;;;4964952;28;20079;-63
2021/09/29 06:54:38;;;;;;;224.18;18.00;;;;;;;;;;4970127;28;20503;-63
2021/09/29 06:57:06;;;;;;;297.30;21.35;;;;;;;;;;4965740;28;20054;-63
2021/09/29 06:59:35;;;;;;;186.38;17.25;;;;;;;;;;4958443;28;20309;-63
2021/09/29 07:02:02;;;;;;;363.95;24.27;;;;;;;;;;4964956;28;20078;-63
2021/09/29 07:04:29;;;;;;;113.80;16.50;;;;;;;;;;4961400;28;20105;-63
2021/09/29 07:06:55;;;;;;;132.20;18.58;;;;;;;;;;4965896;28;20054;-63
2021/09/29 07:09:22;;;;;;;145.05;17.88;;;;;;;;;;4963957;28;20131;-63
2021/09/29 07:11:48;;;;;;;167.63;21.90;;;;;;;;;;4963265;28;20573;-64
2021/09/29 07:14:15;;;;;;;192.70;22.50;;;;;;;;;;4964100;28;20580;-63
2021/09/29 07:16:42;;;;;;;155.95;20.35;;;;;;;;;;4967795;28;20137;-63
2021/09/29 07:19:09;;;;;;;111.28;17.48;;;;;;;;;;4965207;28;20121;-63
2021/09/29 07:21:35;;;;;;;103.82;16.98;;;;;;;;;;4964898;28;20560;-63
2021/09/29 07:24:02;;;;;;;175.50;21.30;;;;;;;;;;4959993;28;20150;-63
2021/09/29 07:26:28;;;;;;;183.93;21.52;;;;;;;;;;4962406;28;20081;-64
2021/09/29 07:28:54;;;;;;;143.10;19.98;;;;;;;;;;4966693;28;20410;-63
2021/09/29 07:31:22;;;;;;;175.93;20.42;;;;;;;;;;4969300;28;20083;-63
2021/09/29 07:33:49;;;;;;;137.07;19.33;;;;;;;;;;4962419;28;20043;-63
2021/09/29 07:36:15;;;;;;;108.00;18.40;;;;;;;;;;4966054;28;20055;-65
2021/09/29 07:38:42;;;;;;;75.05;17.55;;;;;;;;;;4959989;28;20422;-63
2021/09/29 07:41:09;;;;;;;71.47;17.20;;;;;;;;;;4960299;28;20057;-63
2021/09/29 07:43:35;;;;;;;87.20;18.45;;;;;;;;;;4962100;28;20082;-64
2021/09/29 07:46:02;;;;;;;92.15;17.85;;;;;;;;;;4959689;28;20134;-63
2021/09/29 07:48:29;;;;;;;71.00;17.13;;;;;;;;;;4955346;28;20138;-63
2021/09/29 07:50:56;;;;;;;62.88;16.40;;;;;;;;;;4962975;28;20135;-63
2021/09/29 07:53:25;;;;;;;43.20;15.02;;;;;;;;;;4965810;28;20138;-63
2021/09/29 07:55:55;;;;;;;37.33;13.73;;;;;;;;;;4963876;28;20210;-63
2021/09/29 07:58:22;;;;;;;35.25;14.07;;;;;;;;;;4960120;28;20082;-63
2021/09/29 08:00:49;;;;;;;;;;;;;;;;;;4968430;28;20089;-63
2021/09/29 08:03:15;;;;;;;35.13;13.40;;;;;;;;;;4960705;28;19969;-63
2021/09/29 08:05:42;;;;;;;31.52;14.05;;;;;;;;;;4964126;28;20050;-63
2021/09/29 08:08:09;;;;;;;33.92;13.65;;;;;;;;;;4966278;28;20051;-63
2021/09/29 08:10:36;;;;;;;25.60;12.55;;;;;;;;;;4963092;28;20133;-63
2021/09/29 08:13:02;;;;;;;34.42;14.15;;;;;;;;;;4963570;28;20097;-63
2021/09/29 08:15:30;;;;;;;33.35;13.63;;;;;;;;;;4964175;28;20135;-63
2021/09/29 08:17:57;;;;;;;37.67;13.45;;;;;;;;;;4962324;28;20141;-63
2021/09/29 08:20:25;;;;;;;28.65;12.45;;;;;;;;;;4963829;28;20126;-62
2021/09/29 08:22:58;;;;;;;21.92;11.68;;;;;;;;;;4965598;28;20097;-63
2021/09/29 08:28:10;;;;;;;21.40;11.73;;;;;;;;;;4964842;28;20130;-63
2021/09/29 08:33:19;;;;;;;17.77;10.38;;;;;;;;;;4967029;28;20058;-63
2021/09/29 08:35:59;;;;;;;14.05;9.70;;;;;;;;;;4960464;28;20138;-63
2021/09/29 08:38:33;;;;;;;17.45;9.80;;;;;;;;;;4969648;28;20142;-63
2021/09/29 08:43:42;;;;;;;17.42;9.50;;;;;;;;;;4964434;28;20083;-63
2021/09/29 08:46:16;;;;;;;15.27;8.95;;;;;;;;;;4968955;28;20098;-63
2021/09/29 08:49:32;;;;;;;16.33;10.50;;;;;;;;;;4967042;28;20057;-63
2021/09/29 09:16:32;;;;;;;9.05;7.13;;;;;;;;;;4966876;28;20744;-63
2021/09/29 09:19:09;;;;;;;9.25;7.00;;;;;;;;;;4969589;28;20047;-63
2021/09/29 09:21:55;;;;;;;8.68;6.90;;;;;;;;;;4967294;28;20130;-63
2021/09/29 09:24:23;;;;;;;11.13;7.88;;;;;;;;;;4966720;28;20498;-63
2021/09/29 09:26:57;;;;;;;7.65;6.60;;;;;;;;;;4967866;28;20047;-63
2021/09/29 09:29:24;;;;;;;8.50;6.40;;;;;;;;;;4964414;28;20046;-64
2021/09/29 09:31:50;;;;;;;9.15;5.53;;;;;;;;;;4968608;28;20129;-63
2021/09/29 09:34:16;;;;;;;8.68;5.88;;;;;;;;;;4967634;28;20047;-63
2021/09/29 09:36:46;;;;;;;8.63;5.45;;;;;;;;;;4970062;28;20058;-63
2021/09/29 09:39:16;;;;;;;6.07;5.47;;;;;;;;;;4963156;28;20505;-63
2021/09/29 09:41:50;;;;;;;7.03;5.80;;;;;;;;;;4967635;28;20466;-63
2021/09/29 09:44:22;;;;;;;11.27;7.07;;;;;;;;;;4964864;28;20597;-63
2021/09/29 09:47:03;;;;;;;9.60;6.32;;;;;;;;;;4960526;28;20087;-63
2021/09/29 09:49:30;;;;;;;9.25;6.20;;;;;;;;;;4962815;28;20117;-63
2021/09/29 09:52:00;;;;;;;6.78;5.63;;;;;;;;;;4963219;28;20133;-63
2021/09/29 09:54:37;;;;;;;7.38;5.90;;;;;;;;;;4963487;28;20083;-63
2021/09/29 09:57:20;;;;;;;9.10;6.10;;;;;;;;;;4966106;28;20560;-63
2021/09/29 09:59:47;;;;;;;5.95;5.18;;;;;;;;;;4960907;28;20126;-63
2021/09/29 10:02:14;;;;;;;6.50;5.65;;;;;;;;;;4962796;28;20134;-63
2021/09/29 10:04:40;;;;;;;6.88;5.22;;;;;;;;;;4964153;28;20505;-63
2021/09/29 10:07:08;;;;;;;;;;;;;;;;;;4963867;28;20410;-63
2021/09/29 10:09:45;;;;;;;7.78;4.68;;;;;;;;;;4962167;28;19973;-63
2021/09/29 10:12:35;;;;;;;7.30;5.15;;;;;;;;;;4967461;28;20050;-63
2021/09/29 10:15:31;;;;;;;5.50;4.70;;;;;;;;;;4962979;28;20090;-63
2021/09/29 10:26:27;;;;;;;5.25;4.50;;;;;;;;;;4964282;28;20066;-63
2021/09/29 10:29:04;;;;;;;5.43;4.32;;;;;;;;;;4967548;28;20572;-62
2021/09/29 10:31:40;;;;;;;6.05;4.10;;;;;;;;;;4966126;28;20560;-62
2021/09/29 10:34:24;;;;;;;5.20;4.10;;;;;;;;;;4968543;28;20082;-63
2021/09/29 10:37:26;;;;;;;5.38;3.97;;;;;;;;;;4964193;28;20043;-63
2021/09/29 10:42:28;;;;;;;6.93;3.90;;;;;;;;;;4962295;28;20129;-62
2021/09/29 10:47:34;;;;;;;5.75;3.80;;;;;;;;;;4962218;28;20054;-63
2021/09/29 10:50:40;;;;;;;3.70;3.28;;;;;;;;;;4962868;28;20086;-62
2021/09/29 11:31:24;;;;;;;2.97;2.45;;;;;;;;;;4958279;28;20097;-62
2021/09/29 12:10:11;;;;;;;3.85;2.40;;;;;;;;;;4966743;28;20452;-63
2021/09/29 12:14:45;;;;;;;5.55;2.40;;;;;;;;;;4969322;28;20419;-62
2021/09/29 12:17:12;;;;;;;3.38;2.05;;;;;;;;;;4965833;28;20083;-62
2021/09/29 12:19:39;;;;;;;4.60;2.28;;;;;;;;;;4965567;28;20055;-62
2021/09/29 12:22:15;;;;;;;3.10;2.15;;;;;;;;;;4967591;28;20482;-62
2021/09/29 12:25:07;;;;;;;9.48;2.58;;;;;;;;;;4966468;28;20537;-63
2021/09/29 12:27:41;;;;;;;4.18;2.40;;;;;;;;;;4966108;28;20130;-62
2021/09/29 12:36:14;;;;;;;4.75;2.13;;;;;;;;;;4964069;28;20144;-62
2021/09/29 12:38:42;;;;;;;2.33;2.00;;;;;;;;;;4971818;28;20093;-63
2021/09/29 12:41:09;;;;;;;2.78;2.10;;;;;;;;;;4970660;28;20046;-62
2021/09/29 12:43:36;;;;;;;2.47;2.10;;;;;;;;;;4960075;28;20151;-62
2021/09/29 12:46:04;;;;;;;11.07;2.25;;;;;;;;;;4966493;28;20509;-62
2021/09/29 12:48:31;;;;;;;3.55;2.20;;;;;;;;;;4960173;28;20059;-62
2021/09/29 12:50:59;;;;;;;3.53;2.20;;;;;;;;;;4967060;28;20447;-62
2021/09/29 12:53:32;;;;;;;6.70;1.90;;;;;;;;;;4962395;28;20683;-62
2021/09/29 12:56:04;;;;;;;6.10;1.92;;;;;;;;;;4965979;28;20054;-63
2021/09/29 12:58:31;;;;;;;6.00;2.40;;;;;;;;;;4965495;28;20138;-62
2021/09/29 13:00:59;;;;;;;3.65;2.05;;;;;;;;;;4963377;28;20057;-63
2021/09/29 13:03:26;;;;;;;7.38;2.08;;;;;;;;;;4967559;28;20406;-62
2021/09/29 13:05:54;;;;;;;3.05;1.90;;;;;;;;;;4964735;28;20162;-63
2021/09/29 13:08:21;;;;;;;2.88;2.30;;;;;;;;;;4967532;28;20095;-63
2021/09/29 13:10:48;;;;;;;4.93;2.17;;;;;;;;;;4967237;28;20050;-63
2021/09/29 13:13:15;;;;;;;3.75;2.15;;;;;;;;;;4967188;28;20051;-62
2021/09/29 13:15:43;;;;;;;;;;;;;;;;;;4965278;28;20081;-62
2021/09/29 13:23:39;;;;;;;2.20;1.90;;;;;;;;;;4960259;28;20086;-62
2021/09/29 13:37:00;;;;;;;2.30;1.88;;;;;;;;;;4965198;28;20086;-63
2021/09/29 13:39:27;;;;;;;3.65;2.10;;;;;;;;;;4965260;28;20491;-62
2021/09/29 13:41:54;;;;;;;2.65;1.70;;;;;;;;;;4969694;28;20101;-62
2021/09/29 13:44:22;;;;;;;2.20;2.00;;;;;;;;;;4968992;28;20135;-62
2021/09/29 13:46:49;;;;;;;11.00;1.88;;;;;;;;;;4968546;28;20046;-62
2021/09/29 13:49:15;;;;;;;1.95;1.70;;;;;;;;;;4963927;28;20065;-62
2021/09/29 13:51:47;;;;;;;2.33;1.83;;;;;;;;;;4961761;28;20063;-63
2021/09/29 13:54:17;;;;;;;5.85;1.92;;;;;;;;;;4961213;28;20130;-63
2021/09/29 13:57:11;;;;;;;2.50;1.70;;;;;;;;;;4960292;28;20055;-63
2021/09/29 14:29:59;;;;;;;5.22;2.33;;;;;;;;;;4965574;28;20082;-64
2021/09/29 14:32:32;;;;;;;4.32;2.30;;;;;;;;;;4968310;28;20071;-65
2021/09/29 14:34:58;;;;;;;5.78;2.38;;;;;;;;;;4962327;28;20086;-64
2021/09/29 14:37:25;;;;;;;2.60;2.38;;;;;;;;;;4966359;28;20047;-64
2021/09/29 14:39:51;;;;;;;3.10;2.40;;;;;;;;;;4963365;28;20101;-64
2021/09/29 14:42:18;;;;;;;3.40;2.67;;;;;;;;;;4965220;28;20133;-64
2021/09/29 14:44:44;;;;;;;4.70;2.53;;;;;;;;;;4963857;28;20141;-64
2021/09/29 14:47:11;;;;;;;7.40;2.60;;;;;;;;;;4965060;28;20513;-64
2021/09/29 14:49:39;;;;;;;5.70;2.33;;;;;;;;;;4959409;28;20169;-64
2021/09/29 14:52:05;;;;;;;;;;;;;;;;;;4958939;28;20138;-64
2021/09/29 14:54:32;;;;;;;4.90;2.33;;;;;;;;;;4963008;28;20485;-64
2021/09/29 14:56:58;;;;;;;5.10;2.40;;;;;;;;;;4957347;28;20142;-65
2021/09/29 14:59:25;;;;;;;3.63;2.17;;;;;;;;;;4959834;28;20142;-64
2021/09/29 15:01:53;;;;;;;2.45;2.00;;;;;;;;;;4965740;28;20081;-64
2021/09/29 15:04:20;;;;;;;3.63;2.17;;;;;;;;;;4956967;28;20145;-65
2021/09/29 15:06:46;;;;;;;3.25;2.20;;;;;;;;;;4965548;28;20419;-65
2021/09/29 15:09:13;;;;;;;2.08;1.88;;;;;;;;;;4962949;28;20083;-65
2021/09/29 15:11:39;;;;;;;4.15;2.30;;;;;;;;;;4959601;28;20079;-64
2021/09/29 15:14:15;;;;;;;6.10;2.17;;;;;;;;;;4963230;28;20133;-64
2021/09/29 15:16:47;;;;;;;3.47;2.33;;;;;;;;;;4964418;28;20074;-65
2021/09/29 15:21:51;;;;;;;5.60;2.50;;;;;;;;;;4965027;28;20141;-65
2021/09/29 15:27:47;;;;;;;4.15;2.50;;;;;;;;;;4963355;28;20039;-65
2021/09/29 15:30:23;;;;;;;2.80;2.47;;;;;;;;;;4964601;28;21173;-65
2021/09/29 15:48:54;;;;;;;7.43;4.93;;;;;;;;;;4962008;28;20134;-65
2021/09/29 15:51:24;;;;;;;7.00;4.57;;;;;;;;;;4959914;28;20334;-66
2021/09/29 15:56:50;;;;;;;9.23;5.95;;;;;;;;;;4961128;28;20143;-64
2021/09/29 16:02:02;;;;;;;11.25;7.13;;;;;;;;;;4968081;28;20570;-65
2021/09/29 16:17:58;;;;;;;12.40;8.23;;;;;;;;;;4959355;28;20055;-65
2021/09/29 16:23:18;;;;;;;10.93;7.95;;;;;;;;;;4957714;28;20150;-65
2021/09/29 16:31:21;;;;;;;14.05;9.52;;;;;;;;;;4960608;28;20098;-65
2021/09/29 16:33:54;;;;;;;11.95;9.50;;;;;;;;;;4958983;28;20171;-65
2021/09/29 16:36:21;;;;;;;13.70;8.88;;;;;;;;;;4960987;28;20178;-65
2021/09/29 16:38:48;;;;;;;13.82;9.50;;;;;;;;;;4965201;28;20051;-65
2021/09/29 16:41:15;;;;;;;14.13;9.23;;;;;;;;;;4960600;28;20410;-65
2021/09/29 16:43:42;;;;;;;;;;;;;;;;;;4965259;28;20125;-65
2021/09/29 16:46:12;;;;;;;12.60;9.50;;;;;;;;;;4961949;28;19966;-65
2021/09/29 16:48:38;;;;;;;17.13;8.60;;;;;;;;;;4964138;28;20043;-65
2021/09/29 16:51:11;;;;;;;16.20;9.95;;;;;;;;;;4967290;28;20139;-64
2021/09/29 16:54:03;;;;;;;17.15;10.75;;;;;;;;;;4968378;28;20410;-64
2021/09/29 16:56:32;;;;;;;15.00;10.43;;;;;;;;;;4966784;28;20098;-65
2021/09/29 16:59:01;;;;;;;15.38;11.35;;;;;;;;;;4966240;28;20643;-65
2021/09/29 17:01:30;;;;;;;17.80;11.55;;;;;;;;;;4961462;28;20138;-65
2021/09/29 17:03:57;;;;;;;18.75;11.98;;;;;;;;;;4962215;28;20077;-65
2021/09/29 17:06:24;;;;;;;19.70;12.38;;;;;;;;;;4963812;28;20557;-65
2021/09/29 17:08:51;;;;;;;18.25;11.80;;;;;;;;;;4965495;28;20082;-65
2021/09/29 17:11:17;;;;;;;20.80;13.73;;;;;;;;;;4964852;28;20174;-64
2021/09/29 17:13:44;;;;;;;21.40;13.93;;;;;;;;;;4964617;28;20094;-64
2021/09/29 17:16:17;;;;;;;19.07;13.73;;;;;;;;;;4963634;28;20043;-65
2021/09/29 17:18:45;;;;;;;23.02;14.23;;;;;;;;;;4962199;28;20302;-65
2021/09/29 17:21:15;;;;;;;23.50;13.48;;;;;;;;;;4963041;28;20129;-65
2021/09/29 17:23:42;;;;;;;22.85;14.90;;;;;;;;;;4959759;28;20539;-64
2021/09/29 17:26:10;;;;;;;24.25;14.07;;;;;;;;;;4967129;28;20057;-64
2021/09/29 17:28:37;;;;;;;23.52;14.85;;;;;;;;;;4961162;28;20142;-64
2021/09/29 17:31:08;;;;;;;21.88;14.48;;;;;;;;;;4960596;28;20514;-66
2021/09/29 17:52:31;;;;;;;18.77;12.48;;;;;;;;;;4959570;28;20057;-65
2021/09/29 17:54:58;;;;;;;22.23;13.10;;;;;;;;;;4958141;28;20082;-64
2021/09/29 17:57:26;;;;;;;20.10;11.93;;;;;;;;;;4962434;28;20085;-65
2021/09/29 17:59:53;;;;;;;20.70;11.00;;;;;;;;;;4959811;28;20138;-65
2021/09/29 18:02:33;;;;;;;19.08;11.63;;;;;;;;;;4963314;28;20078;-64
2021/09/29 18:05:04;;;;;;;17.23;11.10;;;;;;;;;;4965060;28;20601;-64
2021/09/29 18:07:38;;;;;;;17.83;11.20;;;;;;;;;;4961513;28;20055;-64
2021/09/29 18:10:06;;;;;;;18.42;12.23;;;;;;;;;;4961072;28;20130;-66
2021/09/29 18:12:33;;;;;;;18.38;11.55;;;;;;;;;;4964751;28;20086;-66
2021/09/29 18:14:59;;;;;;;17.98;11.38;;;;;;;;;;4964908;28;20594;-65
2021/09/29 18:17:26;;;;;;;14.32;9.00;;;;;;;;;;4963444;28;20097;-65
2021/09/29 18:19:53;;;;;;;12.63;8.55;;;;;;;;;;4962035;28;20674;-65
2021/09/29 18:22:20;;;;;;;17.55;8.88;;;;;;;;;;4967202;28;20142;-65
2021/09/29 18:24:46;;;;;;;14.13;9.57;;;;;;;;;;4964104;28;20062;-66
2021/09/29 18:27:13;;;;;;;14.40;9.60;;;;;;;;;;4964049;28;20138;-65
2021/09/29 18:29:40;;;;;;;14.77;9.60;;;;;;;;;;4960383;28;20142;-65
2021/09/29 18:32:07;;;;;;;14.75;9.38;;;;;;;;;;4964614;28;20129;-64
2021/09/29 18:34:36;;;;;;;17.70;10.38;;;;;;;;;;4959569;28;20554;-64
2021/09/29 18:37:05;;;;;;;14.57;9.45;;;;;;;;;;4966156;28;20138;-64
2021/09/29 18:39:32;;;;;;;19.02;9.75;;;;;;;;;;4959603;28;20090;-64